Time;durP1;ratioP1;P1;durP2;ratioP2;P2;SDS_P1;SDS_P2;PMS_P1;PMS_P2;Temp;Humidity;BMP_temperature;BMP_pressure;BME280_temperature;BME280_humidity;BME280_pressure;Samples;Min_cycle;Max_cycle;Signal;HPM_P1;HPM_P2
2021/07/15 00:00:24;;;;;;;28.67;25.73;;;19.30;99.90;;;;;;4786204;29;20077;-78
2021/07/15 00:02:50;;;;;;;;;;;19.40;99.90;;;;;;4800501;29;20039;-78
2021/07/15 00:05:17;;;;;;;27.33;24.55;;;19.30;99.90;;;;;;4799769;29;19932;-78
2021/07/15 00:07:44;;;;;;;27.77;24.98;;;19.40;99.90;;;;;;4784959;29;20058;-78
2021/07/15 00:10:22;;;;;;;27.05;24.25;;;19.30;99.90;;;;;;4784475;29;20047;-78
2021/07/15 00:12:50;;;;;;;26.92;24.02;;;19.30;99.90;;;;;;4797926;29;20045;-78
2021/07/15 00:15:20;;;;;;;24.60;21.95;;;19.30;99.90;;;;;;4769860;29;20074;-79
2021/07/15 00:17:47;;;;;;;25.85;23.20;;;19.30;99.90;;;;;;4799150;29;20504;-78
2021/07/15 00:20:15;;;;;;;23.73;21.08;;;19.30;99.90;;;;;;4802839;29;20035;-79
2021/07/15 00:22:42;;;;;;;24.95;20.58;;;19.30;99.90;;;;;;4783462;29;20058;-78
2021/07/15 00:25:15;;;;;;;28.33;23.27;;;19.30;99.90;;;;;;4774195;29;20050;-79
2021/07/15 00:27:42;;;;;;;20.75;18.45;;;19.30;99.90;;;;;;4802048;29;20050;-79
2021/07/15 00:30:13;;;;;;;18.60;16.70;;;19.30;99.90;;;;;;4786170;29;20031;-78
2021/07/15 00:32:40;;;;;;;26.60;19.50;;;19.20;99.90;;;;;;4805449;29;20053;-78
2021/07/15 00:35:08;;;;;;;24.80;20.67;;;19.30;99.90;;;;;;4784970;29;20514;-78
2021/07/15 00:37:35;;;;;;;23.63;20.35;;;19.20;99.90;;;;;;4806510;29;20050;-78
2021/07/15 00:40:14;;;;;;;21.73;17.67;;;19.30;99.90;;;;;;4789922;29;20038;-78
2021/07/15 00:42:42;;;;;;;22.23;18.02;;;19.30;99.90;;;;;;4784688;29;20457;-78
2021/07/15 00:45:10;;;;;;;28.92;22.63;;;19.20;99.90;;;;;;4787048;29;20387;-78
2021/07/15 00:47:37;;;;;;;22.65;20.17;;;19.20;99.90;;;;;;4791521;29;20043;-78
2021/07/15 00:50:06;;;;;;;26.40;22.05;;;19.20;99.90;;;;;;4804270;29;20066;-78
2021/07/15 00:52:34;;;;;;;19.90;16.90;;;19.20;99.90;;;;;;4804021;29;20046;-78
2021/07/15 00:55:01;;;;;;;24.15;20.42;;;19.20;99.90;;;;;;4776394;29;20522;-78
2021/07/15 00:57:27;;;;;;;28.30;23.70;;;19.20;99.90;;;;;;4808106;29;20038;-77
2021/07/15 00:59:54;;;;;;;29.33;23.88;;;19.20;99.90;;;;;;4793106;29;20054;-78
2021/07/15 01:02:20;;;;;;;31.85;23.13;;;19.20;99.90;;;;;;4805142;29;20046;-78
2021/07/15 01:04:47;;;;;;;31.23;23.95;;;19.10;99.90;;;;;;4807332;29;20487;-78
2021/07/15 01:07:13;;;;;;;32.92;25.08;;;19.20;99.90;;;;;;4807855;29;20515;-78
2021/07/15 01:09:40;;;;;;;29.13;23.10;;;19.10;99.90;;;;;;4789165;29;20058;-78
2021/07/15 01:12:51;;;;;;;29.25;22.80;;;19.10;99.90;;;;;;4806401;29;20371;-77
2021/07/15 01:15:24;;;;;;;27.42;20.75;;;19.10;99.90;;;;;;4778322;29;20407;-78
2021/07/15 01:17:56;;;;;;;26.27;21.10;;;19.10;99.90;;;;;;4776444;29;20051;-78
2021/07/15 01:20:53;;;;;;;32.15;22.75;;;19.10;99.90;;;;;;4805603;29;20050;-78
2021/07/15 01:23:48;;;;;;;30.48;22.77;;;19.10;99.90;;;;;;4788149;29;20023;-75
2021/07/15 01:26:38;;;;;;;32.67;23.25;;;19.10;99.90;;;;;;4804384;29;20514;-75
2021/07/15 01:29:19;;;;;;;27.25;21.05;;;19.10;99.90;;;;;;4805147;29;20046;-74
2021/07/15 01:31:49;;;;;;;27.23;21.08;;;19.10;99.90;;;;;;4801097;29;20050;-75
2021/07/15 01:34:16;;;;;;;30.40;22.95;;;19.10;99.90;;;;;;4804210;29;20045;-75
2021/07/15 01:36:49;;;;;;;24.33;19.45;;;19.00;99.90;;;;;;4804210;29;20454;-76
2021/07/15 01:39:17;;;;;;;24.35;19.90;;;19.00;99.90;;;;;;4786790;29;20053;-75
2021/07/15 01:41:46;;;;;;;19.45;16.70;;;19.00;99.90;;;;;;4783419;29;20049;-75
2021/07/15 01:44:27;;;;;;;19.30;17.02;;;19.00;99.90;;;;;;4801466;29;20039;-75
2021/07/15 01:46:53;;;;;;;22.58;18.48;;;19.00;99.90;;;;;;4799518;29;20046;-75
2021/07/15 01:49:20;;;;;;;23.02;19.02;;;19.00;99.90;;;;;;4804968;29;20055;-75
2021/07/15 01:51:47;;;;;;;22.35;18.60;;;19.00;99.90;;;;;;4800519;29;20051;-75
2021/07/15 01:54:14;;;;;;;27.33;22.58;;;18.90;99.90;;;;;;4788113;29;20065;-74
2021/07/15 01:56:41;;;;;;;35.10;24.58;;;18.90;99.90;;;;;;4805279;29;20058;-75
2021/07/15 01:59:11;;;;;;;29.42;22.90;;;18.90;99.90;;;;;;4788426;29;20039;-75
2021/07/15 02:01:38;;;;;;;29.92;24.05;;;18.90;99.90;;;;;;4789457;29;20075;-75
2021/07/15 02:04:06;;;;;;;30.67;22.75;;;18.90;99.90;;;;;;4791957;29;20491;-75
2021/07/15 02:06:35;;;;;;;38.00;27.75;;;18.90;99.90;;;;;;4791082;29;20629;-75
2021/07/15 02:09:08;;;;;;;36.05;27.75;;;18.90;99.90;;;;;;4808053;29;20045;-75
2021/07/15 02:11:35;;;;;;;40.47;27.20;;;18.90;99.90;;;;;;4790710;29;20045;-75
2021/07/15 02:14:04;;;;;;;41.25;29.92;;;18.90;99.90;;;;;;4805939;29;20043;-75
2021/07/15 02:16:37;;;;;;;34.15;26.60;;;18.80;99.90;;;;;;4809151;29;20045;-75
2021/07/15 02:19:04;;;;;;;36.58;26.58;;;18.90;99.90;;;;;;4786270;29;20089;-75
2021/07/15 02:21:33;;;;;;;40.25;26.40;;;18.80;99.90;;;;;;4786384;29;20053;-75
2021/07/15 02:24:01;;;;;;;38.33;27.02;;;18.90;99.90;;;;;;4787348;29;20042;-75
2021/07/15 02:26:28;;;;;;;33.85;25.52;;;18.90;99.90;;;;;;4804698;29;20391;-75
2021/07/15 02:28:55;;;;;;;34.97;23.90;;;18.90;99.90;;;;;;4776241;29;20055;-75
2021/07/15 02:31:29;;;;;;;38.58;24.70;;;18.80;99.90;;;;;;4808144;29;20380;-74
2021/07/15 02:33:59;;;;;;;36.58;25.75;;;18.80;99.90;;;;;;4808129;29;20035;-75
2021/07/15 02:36:28;;;;;;;33.88;25.52;;;18.90;99.90;;;;;;4788646;29;20085;-74
2021/07/15 02:39:00;;;;;;;32.25;24.33;;;18.90;99.90;;;;;;4807927;29;20047;-74
2021/07/15 02:41:26;;;;;;;29.75;23.50;;;18.80;99.90;;;;;;4804293;29;20046;-75
2021/07/15 02:43:53;;;;;;;33.92;23.27;;;18.80;99.90;;;;;;4806456;29;20038;-75
2021/07/15 02:46:19;;;;;;;37.65;25.40;;;18.90;99.90;;;;;;4788676;29;20053;-75
2021/07/15 02:48:46;;;;;;;32.63;23.95;;;18.90;99.90;;;;;;4805332;29;20042;-74
2021/07/15 02:51:12;;;;;;;30.45;23.65;;;18.90;99.90;;;;;;4787617;29;20047;-75
2021/07/15 02:53:39;;;;;;;33.72;24.52;;;18.90;99.90;;;;;;4760515;29;20046;-75
2021/07/15 02:56:40;;;;;;;28.83;20.73;;;18.90;99.90;;;;;;4805369;29;20061;-75
2021/07/15 02:59:37;;;;;;;27.85;22.45;;;18.90;99.90;;;;;;4807740;29;20493;-75
2021/07/15 03:02:04;;;;;;;31.58;21.92;;;18.90;99.90;;;;;;4771066;29;20053;-75
2021/07/15 03:04:37;;;;;;;26.60;20.63;;;18.80;99.90;;;;;;4787893;29;20491;-75
2021/07/15 03:07:08;;;;;;;26.15;18.05;;;18.80;99.90;;;;;;4787385;29;20079;-75
2021/07/15 03:09:35;;;;;;;24.45;18.63;;;18.80;99.90;;;;;;4806241;29;20510;-77
2021/07/15 03:12:14;;;;;;;23.25;17.88;;;18.80;99.90;;;;;;4784076;29;20050;-78
2021/07/15 03:14:44;;;;;;;22.92;17.50;;;18.80;99.90;;;;;;4801781;29;20586;-78
2021/07/15 03:17:14;;;;;;;19.55;15.75;;;18.80;99.90;;;;;;4803583;29;20042;-78
2021/07/15 03:19:48;;;;;;;18.00;14.18;;;18.80;99.90;;;;;;4801779;29;20065;-77
2021/07/15 03:22:14;;;;;;;20.40;16.95;;;18.80;99.90;;;;;;4799698;29;20583;-77
2021/07/15 03:24:47;;;;;;;16.92;15.13;;;18.80;99.90;;;;;;4787385;29;20162;-78
2021/07/15 03:27:15;;;;;;;18.30;14.85;;;18.80;99.90;;;;;;4801163;29;20053;-78
2021/07/15 03:29:44;;;;;;;17.80;14.27;;;18.80;99.90;;;;;;4802610;29;20261;-78
2021/07/15 03:32:13;;;;;;;19.60;14.93;;;18.80;99.90;;;;;;4800234;29;20539;-77
2021/07/15 03:34:40;;;;;;;16.80;13.55;;;18.80;99.90;;;;;;4802137;29;20039;-78
2021/07/15 03:37:07;;;;;;;16.80;13.85;;;18.80;99.90;;;;;;4799640;29;20050;-77
2021/07/15 03:39:35;;;;;;;15.27;12.45;;;18.70;99.90;;;;;;4801683;29;20224;-77
2021/07/15 03:42:01;;;;;;;12.02;10.75;;;18.70;99.90;;;;;;4784267;29;20046;-75
2021/07/15 03:44:29;;;;;;;13.07;11.48;;;18.70;99.90;;;;;;4785669;29;20043;-75
2021/07/15 03:46:57;;;;;;;13.60;11.98;;;18.80;99.90;;;;;;4768335;29;20055;-75
2021/07/15 03:49:26;;;;;;;12.68;11.35;;;18.70;99.90;;;;;;4802781;29;20054;-75
2021/07/15 03:51:53;;;;;;;12.77;10.68;;;18.70;99.90;;;;;;4800779;29;20043;-75
2021/07/15 03:54:22;;;;;;;15.68;11.80;;;18.80;99.90;;;;;;4808095;29;20054;-76
2021/07/15 03:56:50;;;;;;;13.60;11.40;;;18.70;99.90;;;;;;4789259;29;20030;-75
2021/07/15 03:59:18;;;;;;;13.02;10.68;;;18.70;99.90;;;;;;4789223;29;20042;-75
2021/07/15 04:01:45;;;;;;;13.43;10.85;;;18.80;99.90;;;;;;4785714;29;20385;-75
2021/07/15 04:04:13;;;;;;;12.10;10.73;;;18.70;99.90;;;;;;4804429;29;20534;-77
2021/07/15 04:06:42;;;;;;;12.10;10.38;;;18.70;99.90;;;;;;4776127;29;20069;-75
2021/07/15 04:09:10;;;;;;;14.48;9.93;;;18.70;99.90;;;;;;4802070;29;20039;-75
2021/07/15 04:11:45;;;;;;;10.32;9.05;;;18.70;99.90;;;;;;4804387;29;20055;-76
2021/07/15 04:14:18;;;;;;;14.23;10.88;;;18.70;99.90;;;;;;4803999;29;20054;-75
2021/07/15 04:17:00;;;;;;;10.77;9.00;;;18.70;99.90;;;;;;4792125;29;20038;-75
2021/07/15 04:19:27;;;;;;;9.73;8.65;;;18.70;99.90;;;;;;4805314;29;20046;-75
2021/07/15 04:21:54;;;;;;;13.45;9.30;;;18.70;99.90;;;;;;4785492;29;20641;-75
2021/07/15 04:24:24;;;;;;;11.07;8.88;;;18.70;99.90;;;;;;4793287;29;20046;-75
2021/07/15 04:26:51;;;;;;;10.98;8.50;;;18.70;99.90;;;;;;4810383;29;20051;-74
2021/07/15 04:29:20;;;;;;;9.50;7.70;;;18.70;99.90;;;;;;4788658;29;20066;-75
2021/07/15 04:32:17;;;;;;;11.32;10.05;;;18.70;99.90;;;;;;4790823;29;20039;-75
2021/07/15 04:34:45;;;;;;;12.30;8.65;;;18.70;99.90;;;;;;4807540;29;20403;-75
2021/07/15 04:37:12;;;;;;;14.85;10.65;;;18.60;99.90;;;;;;4792812;29;20043;-75
2021/07/15 04:39:38;;;;;;;15.38;11.77;;;18.60;99.90;;;;;;4795903;29;20054;-75
2021/07/15 04:42:06;;;;;;;13.82;10.00;;;18.60;99.90;;;;;;4791379;29;20062;-78
2021/07/15 04:44:34;;;;;;;21.20;13.77;;;18.60;99.90;;;;;;4778444;29;20419;-78
2021/07/15 04:47:05;;;;;;;19.60;14.85;;;18.60;99.90;;;;;;4794163;29;20059;-78
2021/07/15 04:49:32;;;;;;;22.88;16.23;;;18.60;99.90;;;;;;4742663;29;20571;-77
2021/07/15 04:52:00;;;;;;;26.17;18.73;;;18.60;99.90;;;;;;4788146;29;20059;-78
2021/07/15 04:54:28;;;;;;;29.42;17.52;;;18.60;99.90;;;;;;4775274;29;20054;-78
2021/07/15 04:56:55;;;;;;;31.33;19.48;;;18.60;99.90;;;;;;4777778;29;20046;-78
2021/07/15 04:59:22;;;;;;;27.60;17.27;;;18.60;99.90;;;;;;4789869;29;20043;-77
2021/07/15 05:01:48;;;;;;;25.50;17.10;;;18.60;99.90;;;;;;4782594;29;20380;-76
2021/07/15 05:04:15;;;;;;;28.15;17.77;;;18.70;99.90;;;;;;4786866;29;20392;-77
2021/07/15 05:06:41;;;;;;;35.92;20.92;;;18.70;99.90;;;;;;4801185;29;20057;-79
2021/07/15 05:09:07;;;;;;;33.20;20.65;;;18.70;99.90;;;;;;4804486;29;20043;-79
2021/07/15 05:11:34;;;;;;;40.55;22.98;;;18.70;99.90;;;;;;4774508;29;20454;-79
2021/07/15 05:14:05;;;;;;;40.22;22.98;;;18.70;99.90;;;;;;4802406;29;20034;-79
2021/07/15 05:16:32;;;;;;;31.67;19.92;;;18.60;99.90;;;;;;4804849;29;20054;-79
2021/07/15 05:18:58;;;;;;;35.40;21.25;;;18.60;99.90;;;;;;4797271;29;20035;-79
2021/07/15 05:21:25;;;;;;;38.47;22.33;;;18.70;99.90;;;;;;4805368;29;20042;-78
2021/07/15 05:23:51;;;;;;;34.30;21.30;;;18.70;99.90;;;;;;4789782;29;20563;-79
2021/07/15 05:26:18;;;;;;;31.27;19.48;;;18.60;99.90;;;;;;4791213;29;20472;-79
2021/07/15 05:28:45;;;;;;;38.50;22.67;;;18.60;99.90;;;;;;4802681;29;20042;-79
2021/07/15 05:31:11;;;;;;;31.42;21.45;;;18.60;99.90;;;;;;4802906;29;20539;-79
2021/07/15 05:33:37;;;;;;;33.20;21.42;;;18.70;99.90;;;;;;4802421;29;20380;-79
2021/07/15 05:36:04;;;;;;;32.05;20.88;;;18.70;99.90;;;;;;4785618;29;20407;-78
2021/07/15 05:38:30;;;;;;;29.13;19.05;;;18.70;99.90;;;;;;4788953;29;20035;-79
2021/07/15 05:40:57;;;;;;;35.40;20.70;;;18.70;99.90;;;;;;4787465;29;20526;-79
2021/07/15 05:43:23;;;;;;;41.50;25.27;;;18.70;99.90;;;;;;4775209;29;20067;-79
2021/07/15 05:45:49;;;;;;;38.55;24.15;;;18.70;99.90;;;;;;4790044;29;20411;-81
2021/07/15 05:48:16;;;;;;;41.40;24.30;;;18.60;99.90;;;;;;4769629;29;20039;-78
2021/07/15 05:50:42;;;;;;;52.20;29.17;;;18.70;99.90;;;;;;4771889;29;20049;-78
2021/07/15 05:53:09;;;;;;;49.65;27.77;;;18.60;99.90;;;;;;4804750;29;20602;-75
2021/07/15 05:55:35;;;;;;;54.45;28.00;;;18.60;99.90;;;;;;4758705;29;20058;-74
2021/07/15 05:58:01;;;;;;;44.85;27.80;;;18.60;99.90;;;;;;4807961;29;20042;-74
2021/07/15 06:00:28;;;;;;;50.63;29.65;;;18.60;99.90;;;;;;4808517;29;20054;-74
2021/07/15 06:02:55;;;;;;;54.80;31.50;;;18.60;99.90;;;;;;4802615;29;20055;-74
2021/07/15 06:05:22;;;;;;;53.90;29.55;;;18.60;99.90;;;;;;4789116;29;20055;-75
2021/07/15 06:07:52;;;;;;;50.10;29.08;;;18.60;99.90;;;;;;4806444;29;20046;-75
2021/07/15 06:10:18;;;;;;;56.38;32.00;;;18.60;99.90;;;;;;4806731;29;20030;-75
2021/07/15 06:12:45;;;;;;;54.03;29.55;;;18.60;99.90;;;;;;4801048;29;20053;-75
2021/07/15 06:15:11;;;;;;;45.97;27.70;;;18.60;99.90;;;;;;4805089;29;20034;-75
2021/07/15 06:17:38;;;;;;;55.05;30.50;;;18.60;99.90;;;;;;4804608;29;20054;-75
2021/07/15 06:20:22;;;;;;;61.92;34.20;;;18.60;99.90;;;;;;4803586;29;20057;-75
2021/07/15 06:22:48;;;;;;;54.22;29.95;;;18.60;99.90;;;;;;4785946;29;20534;-74
2021/07/15 06:25:15;;;;;;;54.40;30.55;;;18.60;99.90;;;;;;4787489;29;20066;-75
2021/07/15 06:27:43;;;;;;;51.72;29.52;;;18.60;99.90;;;;;;4806191;29;20047;-75
2021/07/15 06:30:12;;;;;;;45.55;28.95;;;18.70;99.90;;;;;;4788434;29;20042;-75
2021/07/15 06:32:38;;;;;;;49.63;28.67;;;18.70;99.90;;;;;;4802195;29;20046;-75
2021/07/15 06:35:07;;;;;;;43.40;26.98;;;18.70;99.90;;;;;;4788266;29;20046;-75
2021/07/15 06:37:42;;;;;;;43.78;26.17;;;18.70;99.90;;;;;;4771261;29;20431;-75
2021/07/15 06:40:10;;;;;;;37.05;23.42;;;18.70;99.90;;;;;;4800658;29;20039;-75
2021/07/15 06:42:37;;;;;;;31.80;20.52;;;18.70;99.90;;;;;;4785769;29;20055;-75
2021/07/15 06:45:07;;;;;;;29.25;20.63;;;18.80;99.90;;;;;;4783418;29;20039;-75
2021/07/15 06:47:34;;;;;;;29.05;20.10;;;18.80;99.90;;;;;;4782441;29;20055;-74
2021/07/15 06:50:01;;;;;;;27.17;17.75;;;18.80;99.90;;;;;;4796222;29;20487;-74
2021/07/15 06:52:30;;;;;;;22.33;16.17;;;18.80;99.90;;;;;;4779722;29;20419;-75
2021/07/15 06:55:00;;;;;;;20.08;13.85;;;18.90;99.90;;;;;;4782839;29;20085;-74
2021/07/15 06:57:27;;;;;;;17.30;12.98;;;18.90;99.90;;;;;;4782291;29;20051;-74
2021/07/15 06:59:53;;;;;;;17.13;13.32;;;18.90;99.90;;;;;;4799681;29;20054;-74
2021/07/15 07:02:19;;;;;;;13.63;11.38;;;18.90;99.90;;;;;;4782137;29;20043;-74
2021/07/15 07:04:46;;;;;;;14.55;11.25;;;18.90;99.90;;;;;;4799562;29;20062;-74
2021/07/15 07:07:12;;;;;;;14.35;11.57;;;18.90;99.90;;;;;;4785187;29;20062;-74
2021/07/15 07:09:39;;;;;;;14.15;10.05;;;18.90;99.90;;;;;;4803135;29;20047;-74
2021/07/15 07:12:06;;;;;;;16.13;11.13;;;18.90;99.90;;;;;;4797771;29;20416;-74
2021/07/15 07:14:32;;;;;;;12.18;9.90;;;18.90;99.90;;;;;;4800316;29;20519;-74
2021/07/15 07:16:59;;;;;;;14.88;11.07;;;18.90;99.90;;;;;;4787286;29;20039;-74
2021/07/15 07:19:25;;;;;;;19.42;12.00;;;18.90;99.90;;;;;;4802338;29;20061;-74
2021/07/15 07:21:51;;;;;;;16.20;12.25;;;18.90;99.90;;;;;;4784405;29;20051;-74
2021/07/15 07:24:18;;;;;;;24.25;13.60;;;18.90;99.90;;;;;;4800454;29;20042;-74
2021/07/15 07:26:44;;;;;;;22.27;15.48;;;18.80;99.90;;;;;;4773696;29;20054;-74
2021/07/15 07:29:11;;;;;;;25.38;16.73;;;18.80;99.90;;;;;;4802908;29;20060;-74
2021/07/15 07:31:37;;;;;;;32.15;17.63;;;18.80;99.90;;;;;;4769047;29;20041;-74
2021/07/15 07:34:06;;;;;;;30.73;19.05;;;18.70;99.90;;;;;;4805266;29;20505;-74
2021/07/15 07:36:35;;;;;;;32.30;19.88;;;18.70;99.90;;;;;;4801561;29;20475;-74
2021/07/15 07:39:08;;;;;;;27.45;17.75;;;18.70;99.90;;;;;;4784230;29;20035;-74
2021/07/15 07:41:38;;;;;;;30.63;19.25;;;18.70;99.90;;;;;;4801267;29;20391;-74
2021/07/15 07:44:04;;;;;;;28.13;18.58;;;18.80;99.90;;;;;;4784153;29;20056;-74
2021/07/15 07:46:31;;;;;;;36.03;22.95;;;18.80;99.90;;;;;;4769026;29;20055;-75
2021/07/15 07:48:57;;;;;;;36.10;21.92;;;18.80;99.90;;;;;;4800629;29;20057;-74
2021/07/15 07:51:24;;;;;;;33.25;20.85;;;18.70;99.90;;;;;;4781372;29;20523;-74
2021/07/15 07:53:51;;;;;;;37.28;21.10;;;18.80;99.90;;;;;;4800399;29;20047;-74
2021/07/15 07:56:18;;;;;;;27.45;17.80;;;18.80;99.90;;;;;;4800028;29;20389;-74
2021/07/15 07:58:44;;;;;;;25.10;17.63;;;18.80;99.90;;;;;;4783893;29;20042;-74
2021/07/15 08:01:11;;;;;;;27.15;18.65;;;18.90;99.90;;;;;;4781958;29;20042;-74
2021/07/15 08:03:40;;;;;;;26.92;18.85;;;18.90;99.90;;;;;;4766774;29;20400;-73
2021/07/15 08:06:07;;;;;;;24.65;17.63;;;19.00;99.90;;;;;;4780340;29;20043;-74
2021/07/15 08:08:36;;;;;;;21.27;14.95;;;19.10;99.90;;;;;;4781137;29;20054;-74
2021/07/15 08:11:03;;;;;;;18.83;14.30;;;19.20;99.90;;;;;;4797265;29;20049;-73
2021/07/15 08:13:29;;;;;;;17.13;12.13;;;19.30;99.90;;;;;;4767331;29;20039;-74
2021/07/15 08:15:56;;;;;;;17.10;11.80;;;19.30;99.90;;;;;;4782142;29;20039;-74
2021/07/15 08:18:23;;;;;;;14.80;10.95;;;19.20;99.90;;;;;;4799808;29;20035;-74
2021/07/15 08:20:50;;;;;;;14.27;9.75;;;19.20;99.90;;;;;;4782072;29;20046;-74
2021/07/15 08:23:17;;;;;;;11.45;10.25;;;19.30;99.90;;;;;;4799813;29;20410;-74
2021/07/15 08:25:43;;;;;;;12.43;9.88;;;19.40;99.90;;;;;;4800221;29;20043;-75
2021/07/15 08:28:13;;;;;;;13.55;8.73;;;19.50;99.90;;;;;;4783874;29;20063;-74
2021/07/15 08:30:40;;;;;;;12.80;9.40;;;19.50;99.90;;;;;;4782201;29;20054;-74
2021/07/15 08:33:07;;;;;;;15.13;10.52;;;19.60;99.90;;;;;;4787599;29;20034;-75
2021/07/15 08:35:34;;;;;;;13.73;10.48;;;19.50;99.90;;;;;;4786421;29;20043;-75
2021/07/15 08:38:00;;;;;;;14.82;10.52;;;19.50;99.90;;;;;;4787243;29;20552;-74
2021/07/15 08:40:28;;;;;;;15.50;11.20;;;19.40;99.90;;;;;;4755660;29;20051;-76
2021/07/15 08:42:55;;;;;;;22.27;14.70;;;19.40;99.90;;;;;;4804917;29;20069;-74
2021/07/15 08:45:22;;;;;;;18.63;14.27;;;19.30;99.90;;;;;;4771875;29;20058;-74
2021/07/15 08:47:50;;;;;;;29.25;16.52;;;19.30;99.90;;;;;;4806557;29;20545;-74
2021/07/15 08:50:18;;;;;;;27.30;14.65;;;19.20;99.90;;;;;;4805893;29;20058;-74
2021/07/15 08:52:45;;;;;;;28.42;14.40;;;19.10;99.90;;;;;;4773211;29;20145;-74
2021/07/15 08:57:41;;;;;;;25.30;15.52;;;19.00;99.90;;;;;;4802431;29;20379;-74
2021/07/15 09:00:16;;;;;;;24.30;14.85;;;19.00;99.90;;;;;;4802870;29;20045;-74
2021/07/15 09:02:44;;;;;;;31.60;16.33;;;18.90;99.90;;;;;;4784641;29;20039;-74
2021/07/15 09:05:11;;;;;;;28.38;17.45;;;18.90;99.90;;;;;;4801421;29;20169;-74
2021/07/15 09:07:40;;;;;;;29.48;18.20;;;18.80;99.90;;;;;;4769897;29;20574;-74
2021/07/15 09:10:07;;;;;;;31.50;18.52;;;18.80;99.90;;;;;;4787881;29;20065;-74
2021/07/15 09:12:33;;;;;;;25.20;15.93;;;18.80;99.90;;;;;;4804691;29;20053;-74
2021/07/15 09:15:07;;;;;;;28.58;16.08;;;18.70;99.90;;;;;;4803973;29;20041;-74
2021/07/15 09:17:36;;;;;;;29.58;15.98;;;18.70;99.90;;;;;;4800165;29;20043;-74
2021/07/15 09:20:06;;;;;;;32.45;17.60;;;18.70;99.90;;;;;;4802265;29;20050;-74
2021/07/15 09:22:32;;;;;;;25.83;15.43;;;18.70;99.90;;;;;;4784858;29;20450;-74
2021/07/15 09:25:00;;;;;;;31.65;17.27;;;18.60;99.90;;;;;;4786663;29;20061;-74
2021/07/15 09:27:29;;;;;;;36.78;19.45;;;18.70;99.90;;;;;;4800852;29;20491;-74
2021/07/15 09:30:12;;;;;;;28.55;17.65;;;18.60;99.90;;;;;;4800507;29;20662;-74
2021/07/15 09:33:03;;;;;;;32.63;19.45;;;18.60;99.90;;;;;;4799298;29;20054;-74
2021/07/15 09:35:30;;;;;;;30.80;16.20;;;18.60;99.90;;;;;;4800690;29;20042;-74
2021/07/15 09:38:09;;;;;;;36.63;18.90;;;18.50;99.90;;;;;;4800939;29;20041;-74
2021/07/15 09:40:55;;;;;;;26.23;16.95;;;18.60;99.90;;;;;;4801339;29;20039;-74
2021/07/15 09:43:21;;;;;;;24.58;17.02;;;18.50;99.90;;;;;;4782773;29;20061;-74
2021/07/15 09:45:49;;;;;;;27.63;17.73;;;18.60;99.90;;;;;;4783982;29;20038;-74
2021/07/15 09:48:24;;;;;;;31.15;18.13;;;18.60;99.90;;;;;;4800518;29;20534;-74
2021/07/15 09:50:54;;;;;;;29.30;18.05;;;18.70;99.90;;;;;;4767925;29;20719;-74
2021/07/15 09:53:29;;;;;;;30.67;18.60;;;18.60;99.90;;;;;;4802984;29;20526;-74
2021/07/15 09:55:59;;;;;;;29.50;17.38;;;18.60;99.90;;;;;;4801900;29;20042;-74
2021/07/15 09:58:40;;;;;;;33.30;20.35;;;18.70;99.90;;;;;;4785499;29;20046;-75
2021/07/15 10:01:13;;;;;;;35.80;19.33;;;18.80;99.90;;;;;;4804584;29;20081;-74
2021/07/15 10:03:45;;;;;;;35.05;20.25;;;18.80;99.90;;;;;;4785248;29;20051;-74
2021/07/15 10:06:14;;;;;;;26.23;18.23;;;18.70;99.90;;;;;;4803598;29;20420;-74
2021/07/15 10:08:43;;;;;;;26.00;16.88;;;18.70;99.90;;;;;;4803733;29;20049;-78
2021/07/15 10:11:12;;;;;;;26.30;18.83;;;18.70;99.90;;;;;;4804821;29;20038;-79
2021/07/15 10:13:39;;;;;;;29.38;17.02;;;18.80;99.90;;;;;;4788568;29;20049;-79
2021/07/15 10:16:07;;;;;;;21.23;15.27;;;18.90;99.90;;;;;;4768538;29;20057;-79
2021/07/15 10:18:44;;;;;;;20.83;14.35;;;18.90;99.90;;;;;;4783813;29;20046;-78
2021/07/15 10:21:13;;;;;;;24.60;15.23;;;18.90;99.90;;;;;;4780079;29;20039;-78
2021/07/15 10:23:47;;;;;;;20.23;14.75;;;18.80;99.90;;;;;;4786950;29;20062;-79
2021/07/15 10:26:14;;;;;;;17.92;13.00;;;18.80;99.90;;;;;;4804998;29;20057;-79
2021/07/15 10:28:46;;;;;;;20.00;13.48;;;18.80;99.90;;;;;;4804127;29;20039;-79
2021/07/15 10:31:14;;;;;;;18.63;14.13;;;18.80;99.90;;;;;;4804229;29;20043;-79
2021/07/15 10:33:42;;;;;;;18.42;13.57;;;18.70;99.90;;;;;;4790771;29;20034;-79
2021/07/15 10:36:10;;;;;;;19.30;14.07;;;18.70;99.90;;;;;;4803355;29;20039;-78
2021/07/15 10:38:45;;;;;;;23.20;15.32;;;18.80;99.90;;;;;;4803080;29;20045;-78
2021/07/15 10:41:13;;;;;;;23.10;15.18;;;18.80;99.90;;;;;;4784947;29;20410;-79
2021/07/15 10:43:40;;;;;;;19.40;14.00;;;18.80;99.90;;;;;;4788413;29;20430;-79
2021/07/15 10:46:08;;;;;;;18.38;13.90;;;18.80;99.90;;;;;;4788315;29;20067;-78
2021/07/15 10:48:37;;;;;;;20.55;14.52;;;18.80;99.90;;;;;;4799287;29;20046;-78
2021/07/15 10:51:05;;;;;;;17.38;13.48;;;18.90;99.90;;;;;;4783869;29;20046;-78
2021/07/15 10:53:35;;;;;;;17.70;13.60;;;18.90;99.90;;;;;;4786423;29;20042;-78
2021/07/15 10:56:03;;;;;;;21.17;13.27;;;19.00;99.90;;;;;;4803624;29;20046;-79
2021/07/15 10:58:50;;;;;;;16.05;12.23;;;19.00;99.90;;;;;;4804471;29;20403;-78
2021/07/15 11:01:32;;;;;;;13.80;10.35;;;19.00;99.90;;;;;;4805423;29;20046;-79
2021/07/15 11:04:22;;;;;;;12.32;10.32;;;19.10;99.90;;;;;;4784735;29;20042;-78
2021/07/15 11:06:50;;;;;;;15.38;10.10;;;19.10;99.90;;;;;;4790081;29;20050;-78
2021/07/15 11:09:23;;;;;;;10.15;8.90;;;19.10;99.90;;;;;;4769502;29;20433;-78
2021/07/15 11:11:50;;;;;;;13.20;9.50;;;19.10;99.90;;;;;;4800707;29;20038;-78
2021/07/15 11:15:05;;;;;;;15.70;9.20;;;19.10;99.90;;;;;;4786764;29;20042;-78
2021/07/15 11:17:33;;;;;;;10.02;8.48;;;19.10;99.90;;;;;;4764630;30;20043;-79
2021/07/15 11:20:06;;;;;;;10.73;8.15;;;19.10;99.90;;;;;;4805191;29;20051;-79
2021/07/15 11:22:42;;;;;;;12.02;8.48;;;19.20;99.90;;;;;;4798592;29;20039;-78
2021/07/15 11:25:17;;;;;;;12.13;8.75;;;19.20;99.90;;;;;;4802526;29;20059;-78
2021/07/15 11:27:50;;;;;;;11.13;9.68;;;19.20;99.90;;;;;;4807731;29;20510;-78
2021/07/15 11:30:34;;;;;;;14.88;10.25;;;19.30;99.90;;;;;;4798923;29;20045;-79
2021/07/15 11:35:52;;;;;;;14.93;11.60;;;19.20;99.90;;;;;;4799770;29;20554;-79
2021/07/15 11:38:30;;;;;;;14.15;11.35;;;19.20;99.90;;;;;;4798558;29;20043;-79
2021/07/15 11:41:04;;;;;;;17.42;12.07;;;19.30;99.90;;;;;;4796913;29;20046;-78
2021/07/15 11:43:47;;;;;;;17.00;11.85;;;19.30;99.90;;;;;;4796589;29;20061;-78
2021/07/15 11:46:16;;;;;;;;;;;19.40;99.90;;;;;;4803772;29;20047;-78
2021/07/15 11:48:45;;;;;;;14.68;10.57;;;19.40;99.90;;;;;;4805112;29;19924;-78
2021/07/15 11:52:01;;;;;;;12.60;10.40;;;19.40;99.90;;;;;;4805389;29;20507;-78
2021/07/15 11:54:27;;;;;;;15.80;10.65;;;19.30;99.90;;;;;;4792613;29;20065;-79
2021/07/15 11:56:57;;;;;;;16.02;10.60;;;19.40;99.90;;;;;;4773183;29;20042;-78
2021/07/15 11:59:44;;;;;;;15.45;11.77;;;19.50;99.90;;;;;;4798858;29;20042;-78
2021/07/15 12:02:39;;;;;;;13.73;11.88;;;19.60;99.90;;;;;;4798261;29;20502;-79
2021/07/15 12:05:14;;;;;;;14.68;10.57;;;19.60;99.90;;;;;;4806424;29;20053;-79
2021/07/15 12:08:04;;;;;;;13.50;11.40;;;19.70;99.90;;;;;;4771897;29;20050;-78
2021/07/15 12:10:35;;;;;;;14.93;11.02;;;19.60;99.90;;;;;;4799059;29;20952;-79
2021/07/15 12:13:07;;;;;;;18.38;12.55;;;19.60;99.90;;;;;;4782922;29;20042;-79
2021/07/15 12:15:34;;;;;;;;;;;19.60;99.90;;;;;;4798957;29;20039;-79
2021/07/15 12:18:12;;;;;;;13.90;10.88;;;19.60;99.90;;;;;;4800473;29;19999;-79
2021/07/15 12:20:52;;;;;;;15.48;11.95;;;19.60;99.90;;;;;;5057515;28;20936;-79
2021/07/15 12:23:32;;;;;;;18.90;13.45;;;19.60;99.90;;;;;;5041993;28;20487;-80
2021/07/15 12:26:01;;;;;;;20.13;13.18;;;19.70;99.90;;;;;;5056381;28;20041;-79
2021/07/15 12:28:30;;;;;;;17.10;12.52;;;19.60;99.90;;;;;;5056085;28;20132;-79
2021/07/15 12:31:10;;;;;;;19.50;12.52;;;19.60;99.90;;;;;;5050153;28;20029;-79
2021/07/15 12:33:36;;;;;;;17.17;12.70;;;19.60;99.90;;;;;;5054349;28;20364;-79
2021/07/15 12:36:25;;;;;;;21.00;14.82;;;19.50;99.90;;;;;;5052207;28;20064;-80
2021/07/15 12:39:04;;;;;;;19.95;13.48;;;19.50;99.90;;;;;;5055469;28;20392;-80
2021/07/15 12:41:35;;;;;;;20.42;12.57;;;19.60;99.90;;;;;;5040654;28;20036;-79
2021/07/15 12:44:11;;;;;;;20.85;13.60;;;19.60;99.90;;;;;;5054742;28;20474;-79
2021/07/15 12:46:43;;;;;;;20.08;13.18;;;19.50;99.90;;;;;;5065488;28;20025;-79
2021/07/15 12:49:22;;;;;;;16.27;13.57;;;19.50;99.90;;;;;;5058169;28;20032;-79